sensor_id;sensor_type;location;lat;lon;timestamp;P1;durP1;ratioP1;P2;durP2;ratioP2
4961;SDS011;2496;52.468;13.342;2024-02-26T00:02:26;12.50;;;6.87;;
4961;SDS011;2496;52.468;13.342;2024-02-26T00:04:54;12.10;;;7.57;;
4961;SDS011;2496;52.468;13.342;2024-02-26T00:07:22;17.43;;;7.77;;
4961;SDS011;2496;52.468;13.342;2024-02-26T00:09:50;15.07;;;8.33;;
4961;SDS011;2496;52.468;13.342;2024-02-26T00:12:18;20.63;;;9.40;;
4961;SDS011;2496;52.468;13.342;2024-02-26T00:14:45;18.50;;;11.37;;
4961;SDS011;2496;52.468;13.342;2024-02-26T00:17:14;16.13;;;9.30;;
4961;SDS011;2496;52.468;13.342;2024-02-26T00:19:43;17.00;;;9.03;;
4961;SDS011;2496;52.468;13.342;2024-02-26T00:22:11;14.37;;;9.83;;
4961;SDS011;2496;52.468;13.342;2024-02-26T00:24:39;19.03;;;11.60;;
4961;SDS011;2496;52.468;13.342;2024-02-26T00:27:08;21.93;;;12.27;;
4961;SDS011;2496;52.468;13.342;2024-02-26T00:29:37;17.93;;;10.87;;
4961;SDS011;2496;52.468;13.342;2024-02-26T00:32:05;16.97;;;9.50;;
4961;SDS011;2496;52.468;13.342;2024-02-26T00:34:32;20.20;;;11.63;;
4961;SDS011;2496;52.468;13.342;2024-02-26T00:36:59;16.67;;;10.30;;
4961;SDS011;2496;52.468;13.342;2024-02-26T00:39:26;15.00;;;9.73;;
4961;SDS011;2496;52.468;13.342;2024-02-26T00:41:54;16.63;;;10.60;;
4961;SDS011;2496;52.468;13.342;2024-02-26T00:44:23;13.60;;;8.73;;
4961;SDS011;2496;52.468;13.342;2024-02-26T00:46:50;16.50;;;10.70;;
4961;SDS011;2496;52.468;13.342;2024-02-26T00:49:17;17.37;;;10.60;;
4961;SDS011;2496;52.468;13.342;2024-02-26T00:51:45;18.97;;;10.90;;
4961;SDS011;2496;52.468;13.342;2024-02-26T00:54:12;26.73;;;10.20;;
4961;SDS011;2496;52.468;13.342;2024-02-26T00:56:47;15.50;;;10.27;;
4961;SDS011;2496;52.468;13.342;2024-02-26T00:59:14;14.20;;;9.90;;
4961;SDS011;2496;52.468;13.342;2024-02-26T01:01:43;20.03;;;10.80;;
4961;SDS011;2496;52.468;13.342;2024-02-26T01:04:10;18.83;;;10.53;;
4961;SDS011;2496;52.468;13.342;2024-02-26T01:06:38;15.33;;;11.30;;
4961;SDS011;2496;52.468;13.342;2024-02-26T01:09:05;21.53;;;11.57;;
4961;SDS011;2496;52.468;13.342;2024-02-26T01:11:33;17.23;;;9.83;;
4961;SDS011;2496;52.468;13.342;2024-02-26T01:14:00;23.63;;;10.07;;
4961;SDS011;2496;52.468;13.342;2024-02-26T01:16:29;14.40;;;10.73;;
4961;SDS011;2496;52.468;13.342;2024-02-26T01:18:58;16.67;;;9.70;;
4961;SDS011;2496;52.468;13.342;2024-02-26T01:21:25;18.23;;;9.97;;
4961;SDS011;2496;52.468;13.342;2024-02-26T01:23:54;17.47;;;9.83;;
4961;SDS011;2496;52.468;13.342;2024-02-26T01:26:21;13.70;;;8.20;;
4961;SDS011;2496;52.468;13.342;2024-02-26T01:28:48;15.37;;;10.27;;
4961;SDS011;2496;52.468;13.342;2024-02-26T01:31:15;12.93;;;9.47;;
4961;SDS011;2496;52.468;13.342;2024-02-26T01:33:43;15.53;;;9.90;;
4961;SDS011;2496;52.468;13.342;2024-02-26T01:36:11;19.43;;;9.43;;
4961;SDS011;2496;52.468;13.342;2024-02-26T01:38:39;13.47;;;9.77;;
4961;SDS011;2496;52.468;13.342;2024-02-26T01:41:06;17.40;;;9.30;;
4961;SDS011;2496;52.468;13.342;2024-02-26T01:43:33;17.17;;;9.73;;
4961;SDS011;2496;52.468;13.342;2024-02-26T01:46:00;14.10;;;10.37;;
4961;SDS011;2496;52.468;13.342;2024-02-26T01:48:28;13.57;;;9.13;;
4961;SDS011;2496;52.468;13.342;2024-02-26T01:50:55;18.97;;;9.90;;
4961;SDS011;2496;52.468;13.342;2024-02-26T01:53:24;15.67;;;9.20;;
4961;SDS011;2496;52.468;13.342;2024-02-26T01:55:51;12.73;;;9.80;;
4961;SDS011;2496;52.468;13.342;2024-02-26T01:58:18;13.57;;;9.40;;
4961;SDS011;2496;52.468;13.342;2024-02-26T02:00:46;16.80;;;8.90;;
4961;SDS011;2496;52.468;13.342;2024-02-26T02:03:13;15.40;;;9.00;;
4961;SDS011;2496;52.468;13.342;2024-02-26T02:05:40;13.60;;;8.40;;
4961;SDS011;2496;52.468;13.342;2024-02-26T02:08:08;10.20;;;8.23;;
4961;SDS011;2496;52.468;13.342;2024-02-26T02:10:37;11.87;;;8.63;;
4961;SDS011;2496;52.468;13.342;2024-02-26T02:13:05;16.90;;;9.83;;
4961;SDS011;2496;52.468;13.342;2024-02-26T02:15:32;16.63;;;9.73;;
4961;SDS011;2496;52.468;13.342;2024-02-26T02:17:59;16.10;;;9.73;;
4961;SDS011;2496;52.468;13.342;2024-02-26T02:20:32;13.73;;;9.77;;
4961;SDS011;2496;52.468;13.342;2024-02-26T02:23:00;11.33;;;8.50;;
4961;SDS011;2496;52.468;13.342;2024-02-26T02:25:27;13.93;;;8.80;;
4961;SDS011;2496;52.468;13.342;2024-02-26T02:27:55;18.43;;;8.60;;
4961;SDS011;2496;52.468;13.342;2024-02-26T02:30:22;14.70;;;8.70;;
4961;SDS011;2496;52.468;13.342;2024-02-26T02:32:51;14.80;;;9.03;;
4961;SDS011;2496;52.468;13.342;2024-02-26T02:35:18;10.63;;;8.20;;
4961;SDS011;2496;52.468;13.342;2024-02-26T02:37:47;11.73;;;8.27;;
4961;SDS011;2496;52.468;13.342;2024-02-26T02:40:14;11.80;;;8.13;;
4961;SDS011;2496;52.468;13.342;2024-02-26T02:42:41;12.33;;;8.40;;
4961;SDS011;2496;52.468;13.342;2024-02-26T02:45:09;13.30;;;7.43;;
4961;SDS011;2496;52.468;13.342;2024-02-26T02:47:36;11.27;;;7.43;;
4961;SDS011;2496;52.468;13.342;2024-02-26T02:50:04;10.00;;;7.30;;
4961;SDS011;2496;52.468;13.342;2024-02-26T02:52:31;14.80;;;7.70;;
4961;SDS011;2496;52.468;13.342;2024-02-26T02:55:00;14.50;;;8.53;;
4961;SDS011;2496;52.468;13.342;2024-02-26T02:57:27;12.50;;;7.17;;
4961;SDS011;2496;52.468;13.342;2024-02-26T02:59:55;10.43;;;6.90;;
4961;SDS011;2496;52.468;13.342;2024-02-26T03:02:22;10.40;;;6.73;;
4961;SDS011;2496;52.468;13.342;2024-02-26T03:04:49;10.87;;;7.30;;
4961;SDS011;2496;52.468;13.342;2024-02-26T03:07:17;10.47;;;6.53;;
4961;SDS011;2496;52.468;13.342;2024-02-26T03:09:44;11.83;;;6.60;;
4961;SDS011;2496;52.468;13.342;2024-02-26T03:12:13;14.07;;;7.10;;
4961;SDS011;2496;52.468;13.342;2024-02-26T03:14:40;13.10;;;6.63;;
4961;SDS011;2496;52.468;13.342;2024-02-26T03:17:07;8.23;;;6.00;;
4961;SDS011;2496;52.468;13.342;2024-02-26T03:19:34;10.13;;;6.83;;
4961;SDS011;2496;52.468;13.342;2024-02-26T03:22:01;9.63;;;6.40;;
4961;SDS011;2496;52.468;13.342;2024-02-26T03:24:29;9.60;;;7.00;;
4961;SDS011;2496;52.468;13.342;2024-02-26T03:26:56;11.40;;;6.57;;
4961;SDS011;2496;52.468;13.342;2024-02-26T03:29:25;7.67;;;6.03;;
4961;SDS011;2496;52.468;13.342;2024-02-26T03:31:52;8.53;;;6.80;;
4961;SDS011;2496;52.468;13.342;2024-02-26T03:34:19;9.57;;;6.40;;
4961;SDS011;2496;52.468;13.342;2024-02-26T03:36:46;7.93;;;6.00;;
4961;SDS011;2496;52.468;13.342;2024-02-26T03:39:14;10.13;;;6.60;;
4961;SDS011;2496;52.468;13.342;2024-02-26T03:41:41;9.30;;;7.00;;
4961;SDS011;2496;52.468;13.342;2024-02-26T03:44:08;8.90;;;7.33;;
4961;SDS011;2496;52.468;13.342;2024-02-26T03:46:37;8.30;;;6.70;;
4961;SDS011;2496;52.468;13.342;2024-02-26T03:49:04;8.03;;;6.03;;
4961;SDS011;2496;52.468;13.342;2024-02-26T03:51:31;9.00;;;6.77;;
4961;SDS011;2496;52.468;13.342;2024-02-26T03:53:58;8.83;;;6.97;;
4961;SDS011;2496;52.468;13.342;2024-02-26T03:56:26;10.27;;;7.07;;
4961;SDS011;2496;52.468;13.342;2024-02-26T03:58:53;11.53;;;7.00;;
4961;SDS011;2496;52.468;13.342;2024-02-26T04:01:20;12.00;;;7.67;;
4961;SDS011;2496;52.468;13.342;2024-02-26T04:03:49;8.33;;;6.33;;
4961;SDS011;2496;52.468;13.342;2024-02-26T04:06:17;8.67;;;6.87;;
4961;SDS011;2496;52.468;13.342;2024-02-26T04:08:46;16.10;;;7.93;;
4961;SDS011;2496;52.468;13.342;2024-02-26T04:11:13;9.93;;;7.10;;
4961;SDS011;2496;52.468;13.342;2024-02-26T04:13:43;11.13;;;6.73;;
4961;SDS011;2496;52.468;13.342;2024-02-26T04:16:10;10.87;;;7.30;;
4961;SDS011;2496;52.468;13.342;2024-02-26T04:18:38;10.97;;;7.43;;
4961;SDS011;2496;52.468;13.342;2024-02-26T04:21:06;13.37;;;6.77;;
4961;SDS011;2496;52.468;13.342;2024-02-26T04:23:33;10.93;;;7.73;;
4961;SDS011;2496;52.468;13.342;2024-02-26T04:26:01;11.10;;;7.90;;
4961;SDS011;2496;52.468;13.342;2024-02-26T04:28:29;10.77;;;6.70;;
4961;SDS011;2496;52.468;13.342;2024-02-26T04:30:57;8.73;;;6.70;;
4961;SDS011;2496;52.468;13.342;2024-02-26T04:33:24;9.00;;;6.47;;
4961;SDS011;2496;52.468;13.342;2024-02-26T04:35:51;9.40;;;7.37;;
4961;SDS011;2496;52.468;13.342;2024-02-26T04:38:20;11.30;;;7.07;;
4961;SDS011;2496;52.468;13.342;2024-02-26T04:40:47;10.97;;;6.43;;
4961;SDS011;2496;52.468;13.342;2024-02-26T04:43:14;10.73;;;7.50;;
4961;SDS011;2496;52.468;13.342;2024-02-26T04:45:43;9.80;;;7.07;;
4961;SDS011;2496;52.468;13.342;2024-02-26T04:48:10;8.47;;;7.03;;
4961;SDS011;2496;52.468;13.342;2024-02-26T04:50:37;11.23;;;8.40;;
4961;SDS011;2496;52.468;13.342;2024-02-26T04:53:04;10.13;;;7.80;;
4961;SDS011;2496;52.468;13.342;2024-02-26T04:55:33;13.30;;;8.27;;
4961;SDS011;2496;52.468;13.342;2024-02-26T04:58:00;11.57;;;7.40;;
4961;SDS011;2496;52.468;13.342;2024-02-26T05:00:27;12.80;;;7.73;;
4961;SDS011;2496;52.468;13.342;2024-02-26T05:02:55;10.37;;;7.93;;
4961;SDS011;2496;52.468;13.342;2024-02-26T05:05:22;10.73;;;7.63;;
4961;SDS011;2496;52.468;13.342;2024-02-26T05:07:50;10.80;;;7.70;;
4961;SDS011;2496;52.468;13.342;2024-02-26T05:10:17;10.70;;;7.17;;
4961;SDS011;2496;52.468;13.342;2024-02-26T05:12:45;11.43;;;7.47;;
4961;SDS011;2496;52.468;13.342;2024-02-26T05:15:13;12.20;;;7.70;;
4961;SDS011;2496;52.468;13.342;2024-02-26T05:17:43;15.43;;;9.10;;
4961;SDS011;2496;52.468;13.342;2024-02-26T05:20:10;11.43;;;7.43;;
4961;SDS011;2496;52.468;13.342;2024-02-26T05:22:38;10.50;;;8.20;;
4961;SDS011;2496;52.468;13.342;2024-02-26T05:25:05;12.53;;;8.73;;
4961;SDS011;2496;52.468;13.342;2024-02-26T05:27:32;9.93;;;7.60;;
4961;SDS011;2496;52.468;13.342;2024-02-26T05:30:01;14.87;;;8.40;;
4961;SDS011;2496;52.468;13.342;2024-02-26T05:32:28;12.80;;;8.20;;
4961;SDS011;2496;52.468;13.342;2024-02-26T05:34:56;10.43;;;8.27;;
4961;SDS011;2496;52.468;13.342;2024-02-26T05:37:23;11.43;;;8.50;;
4961;SDS011;2496;52.468;13.342;2024-02-26T05:39:50;13.43;;;7.93;;
4961;SDS011;2496;52.468;13.342;2024-02-26T05:42:17;14.10;;;8.40;;
4961;SDS011;2496;52.468;13.342;2024-02-26T05:44:44;13.03;;;10.00;;
4961;SDS011;2496;52.468;13.342;2024-02-26T05:47:13;15.83;;;8.63;;
4961;SDS011;2496;52.468;13.342;2024-02-26T05:49:40;11.17;;;8.50;;
4961;SDS011;2496;52.468;13.342;2024-02-26T05:52:07;12.50;;;8.10;;
4961;SDS011;2496;52.468;13.342;2024-02-26T05:54:35;22.73;;;10.73;;
4961;SDS011;2496;52.468;13.342;2024-02-26T05:57:02;11.97;;;9.90;;
4961;SDS011;2496;52.468;13.342;2024-02-26T05:59:29;15.40;;;10.20;;
4961;SDS011;2496;52.468;13.342;2024-02-26T06:01:57;15.43;;;10.90;;
4961;SDS011;2496;52.468;13.342;2024-02-26T06:04:25;14.10;;;10.30;;
4961;SDS011;2496;52.468;13.342;2024-02-26T06:06:52;18.30;;;11.73;;
4961;SDS011;2496;52.468;13.342;2024-02-26T06:09:20;25.50;;;10.90;;
4961;SDS011;2496;52.468;13.342;2024-02-26T06:11:47;16.30;;;11.10;;
4961;SDS011;2496;52.468;13.342;2024-02-26T06:14:14;19.90;;;11.07;;
4961;SDS011;2496;52.468;13.342;2024-02-26T06:16:43;18.10;;;10.77;;
4961;SDS011;2496;52.468;13.342;2024-02-26T06:19:10;15.23;;;11.17;;
4961;SDS011;2496;52.468;13.342;2024-02-26T06:21:39;15.93;;;11.50;;
4961;SDS011;2496;52.468;13.342;2024-02-26T06:24:09;15.27;;;10.93;;
4961;SDS011;2496;52.468;13.342;2024-02-26T06:26:37;18.20;;;12.73;;
4961;SDS011;2496;52.468;13.342;2024-02-26T06:29:05;16.87;;;11.43;;
4961;SDS011;2496;52.468;13.342;2024-02-26T06:31:33;16.63;;;11.70;;
4961;SDS011;2496;52.468;13.342;2024-02-26T06:34:00;17.63;;;11.57;;
4961;SDS011;2496;52.468;13.342;2024-02-26T06:36:28;18.97;;;11.80;;
4961;SDS011;2496;52.468;13.342;2024-02-26T06:38:58;20.07;;;12.33;;
4961;SDS011;2496;52.468;13.342;2024-02-26T06:41:25;23.13;;;12.23;;
4961;SDS011;2496;52.468;13.342;2024-02-26T06:43:55;23.63;;;12.40;;
4961;SDS011;2496;52.468;13.342;2024-02-26T06:46:22;18.97;;;11.80;;
4961;SDS011;2496;52.468;13.342;2024-02-26T06:48:51;19.00;;;12.40;;
4961;SDS011;2496;52.468;13.342;2024-02-26T06:51:18;24.10;;;12.63;;
4961;SDS011;2496;52.468;13.342;2024-02-26T06:53:46;17.87;;;12.73;;
4961;SDS011;2496;52.468;13.342;2024-02-26T06:56:14;24.73;;;13.00;;
4961;SDS011;2496;52.468;13.342;2024-02-26T06:58:42;17.53;;;11.60;;
4961;SDS011;2496;52.468;13.342;2024-02-26T07:01:10;20.40;;;13.77;;
4961;SDS011;2496;52.468;13.342;2024-02-26T07:03:37;22.83;;;13.87;;
4961;SDS011;2496;52.468;13.342;2024-02-26T07:06:04;19.30;;;14.20;;
4961;SDS011;2496;52.468;13.342;2024-02-26T07:08:31;20.00;;;14.43;;
4961;SDS011;2496;52.468;13.342;2024-02-26T07:10:59;22.00;;;14.00;;
4961;SDS011;2496;52.468;13.342;2024-02-26T07:13:27;24.93;;;14.63;;
4961;SDS011;2496;52.468;13.342;2024-02-26T07:15:55;19.63;;;14.60;;
4961;SDS011;2496;52.468;13.342;2024-02-26T07:18:22;20.13;;;13.27;;
4961;SDS011;2496;52.468;13.342;2024-02-26T07:20:49;22.13;;;13.60;;
4961;SDS011;2496;52.468;13.342;2024-02-26T07:23:16;20.50;;;14.50;;
4961;SDS011;2496;52.468;13.342;2024-02-26T07:25:44;24.10;;;13.40;;
4961;SDS011;2496;52.468;13.342;2024-02-26T07:28:13;21.23;;;14.03;;
4961;SDS011;2496;52.468;13.342;2024-02-26T07:30:42;23.30;;;13.87;;
4961;SDS011;2496;52.468;13.342;2024-02-26T07:33:09;22.20;;;13.60;;
4961;SDS011;2496;52.468;13.342;2024-02-26T07:35:36;27.47;;;14.57;;
4961;SDS011;2496;52.468;13.342;2024-02-26T07:38:04;24.80;;;15.17;;
4961;SDS011;2496;52.468;13.342;2024-02-26T07:40:30;24.20;;;14.43;;
4961;SDS011;2496;52.468;13.342;2024-02-26T07:42:57;30.50;;;14.47;;
4961;SDS011;2496;52.468;13.342;2024-02-26T07:45:24;22.70;;;15.00;;
4961;SDS011;2496;52.468;13.342;2024-02-26T07:47:53;24.00;;;14.43;;
4961;SDS011;2496;52.468;13.342;2024-02-26T07:50:20;19.93;;;13.50;;
4961;SDS011;2496;52.468;13.342;2024-02-26T07:52:47;21.10;;;14.67;;
4961;SDS011;2496;52.468;13.342;2024-02-26T07:55:16;19.37;;;13.67;;
4961;SDS011;2496;52.468;13.342;2024-02-26T07:57:47;19.70;;;13.50;;
4961;SDS011;2496;52.468;13.342;2024-02-26T08:00:16;21.83;;;14.70;;
4961;SDS011;2496;52.468;13.342;2024-02-26T08:02:43;21.33;;;14.30;;
4961;SDS011;2496;52.468;13.342;2024-02-26T08:05:11;21.87;;;15.17;;
4961;SDS011;2496;52.468;13.342;2024-02-26T08:07:39;22.13;;;14.50;;
4961;SDS011;2496;52.468;13.342;2024-02-26T08:10:06;30.10;;;14.80;;
4961;SDS011;2496;52.468;13.342;2024-02-26T08:12:34;21.77;;;14.60;;
4961;SDS011;2496;52.468;13.342;2024-02-26T08:15:01;25.00;;;16.60;;
4961;SDS011;2496;52.468;13.342;2024-02-26T08:17:28;29.00;;;15.37;;
4961;SDS011;2496;52.468;13.342;2024-02-26T08:19:55;21.87;;;15.50;;
4961;SDS011;2496;52.468;13.342;2024-02-26T08:22:24;29.43;;;14.50;;
4961;SDS011;2496;52.468;13.342;2024-02-26T08:24:51;21.60;;;15.00;;
4961;SDS011;2496;52.468;13.342;2024-02-26T08:27:19;22.40;;;15.67;;
4961;SDS011;2496;52.468;13.342;2024-02-26T08:29:46;23.00;;;14.37;;
4961;SDS011;2496;52.468;13.342;2024-02-26T08:32:13;22.60;;;14.87;;
4961;SDS011;2496;52.468;13.342;2024-02-26T08:34:40;23.43;;;15.10;;
4961;SDS011;2496;52.468;13.342;2024-02-26T08:37:07;21.10;;;14.47;;
4961;SDS011;2496;52.468;13.342;2024-02-26T08:39:36;20.50;;;14.50;;
4961;SDS011;2496;52.468;13.342;2024-02-26T08:42:04;18.83;;;13.87;;
4961;SDS011;2496;52.468;13.342;2024-02-26T08:44:32;22.63;;;15.90;;
4961;SDS011;2496;52.468;13.342;2024-02-26T08:46:59;26.33;;;16.13;;
4961;SDS011;2496;52.468;13.342;2024-02-26T08:49:27;23.97;;;15.40;;
4961;SDS011;2496;52.468;13.342;2024-02-26T08:51:54;22.70;;;15.63;;
4961;SDS011;2496;52.468;13.342;2024-02-26T08:54:22;23.63;;;15.00;;
4961;SDS011;2496;52.468;13.342;2024-02-26T08:56:50;22.80;;;14.47;;
4961;SDS011;2496;52.468;13.342;2024-02-26T08:59:17;21.30;;;14.37;;
4961;SDS011;2496;52.468;13.342;2024-02-26T09:01:47;21.60;;;14.53;;
4961;SDS011;2496;52.468;13.342;2024-02-26T09:04:15;22.40;;;14.87;;
4961;SDS011;2496;52.468;13.342;2024-02-26T09:06:42;23.77;;;15.07;;
4961;SDS011;2496;52.468;13.342;2024-02-26T09:09:09;24.13;;;16.13;;
4961;SDS011;2496;52.468;13.342;2024-02-26T09:11:36;23.40;;;16.20;;
4961;SDS011;2496;52.468;13.342;2024-02-26T09:14:05;25.17;;;15.70;;
4961;SDS011;2496;52.468;13.342;2024-02-26T09:16:32;19.70;;;14.43;;
4961;SDS011;2496;52.468;13.342;2024-02-26T09:18:59;23.50;;;16.20;;
4961;SDS011;2496;52.468;13.342;2024-02-26T09:21:27;23.77;;;15.20;;
4961;SDS011;2496;52.468;13.342;2024-02-26T09:23:55;22.37;;;14.80;;
4961;SDS011;2496;52.468;13.342;2024-02-26T09:26:22;22.87;;;14.77;;
4961;SDS011;2496;52.468;13.342;2024-02-26T09:28:50;24.43;;;15.53;;
4961;SDS011;2496;52.468;13.342;2024-02-26T09:31:18;25.87;;;14.20;;
4961;SDS011;2496;52.468;13.342;2024-02-26T09:33:45;26.77;;;15.50;;
4961;SDS011;2496;52.468;13.342;2024-02-26T09:36:13;23.40;;;15.47;;
4961;SDS011;2496;52.468;13.342;2024-02-26T09:38:40;22.83;;;14.50;;
4961;SDS011;2496;52.468;13.342;2024-02-26T09:41:07;22.90;;;14.43;;
4961;SDS011;2496;52.468;13.342;2024-02-26T09:43:41;23.13;;;15.23;;
4961;SDS011;2496;52.468;13.342;2024-02-26T09:46:11;26.17;;;16.43;;
4961;SDS011;2496;52.468;13.342;2024-02-26T09:48:40;20.47;;;13.80;;
4961;SDS011;2496;52.468;13.342;2024-02-26T09:51:09;21.50;;;13.40;;
4961;SDS011;2496;52.468;13.342;2024-02-26T09:53:38;25.73;;;14.03;;
4961;SDS011;2496;52.468;13.342;2024-02-26T09:56:08;26.53;;;13.60;;
4961;SDS011;2496;52.468;13.342;2024-02-26T09:58:35;20.27;;;13.00;;
4961;SDS011;2496;52.468;13.342;2024-02-26T10:01:03;23.50;;;13.73;;
4961;SDS011;2496;52.468;13.342;2024-02-26T10:03:36;19.17;;;13.70;;
4961;SDS011;2496;52.468;13.342;2024-02-26T10:06:06;17.30;;;12.10;;
4961;SDS011;2496;52.468;13.342;2024-02-26T10:08:34;22.30;;;13.20;;
4961;SDS011;2496;52.468;13.342;2024-02-26T10:11:02;20.10;;;11.37;;
4961;SDS011;2496;52.468;13.342;2024-02-26T10:13:29;21.43;;;13.43;;
4961;SDS011;2496;52.468;13.342;2024-02-26T10:15:57;20.80;;;12.00;;
4961;SDS011;2496;52.468;13.342;2024-02-26T10:18:24;20.07;;;12.00;;
4961;SDS011;2496;52.468;13.342;2024-02-26T10:21:01;15.97;;;11.47;;
4961;SDS011;2496;52.468;13.342;2024-02-26T10:23:30;17.70;;;11.57;;
4961;SDS011;2496;52.468;13.342;2024-02-26T10:25:57;19.93;;;11.90;;
4961;SDS011;2496;52.468;13.342;2024-02-26T10:28:24;16.93;;;11.30;;
4961;SDS011;2496;52.468;13.342;2024-02-26T10:30:52;16.73;;;10.90;;
4961;SDS011;2496;52.468;13.342;2024-02-26T10:33:19;18.03;;;10.47;;
4961;SDS011;2496;52.468;13.342;2024-02-26T10:35:46;17.07;;;10.87;;
4961;SDS011;2496;52.468;13.342;2024-02-26T10:38:13;17.33;;;10.60;;
4961;SDS011;2496;52.468;13.342;2024-02-26T10:40:46;20.27;;;10.57;;
4961;SDS011;2496;52.468;13.342;2024-02-26T10:43:15;22.27;;;11.20;;
4961;SDS011;2496;52.468;13.342;2024-02-26T10:45:43;21.57;;;11.57;;
4961;SDS011;2496;52.468;13.342;2024-02-26T10:48:12;16.10;;;9.70;;
4961;SDS011;2496;52.468;13.342;2024-02-26T10:50:40;13.13;;;9.73;;
4961;SDS011;2496;52.468;13.342;2024-02-26T10:53:12;19.77;;;10.83;;
4961;SDS011;2496;52.468;13.342;2024-02-26T10:55:41;19.63;;;11.67;;
4961;SDS011;2496;52.468;13.342;2024-02-26T10:58:10;13.10;;;9.00;;
4961;SDS011;2496;52.468;13.342;2024-02-26T11:00:37;12.77;;;8.73;;
4961;SDS011;2496;52.468;13.342;2024-02-26T11:03:05;13.87;;;8.40;;
4961;SDS011;2496;52.468;13.342;2024-02-26T11:05:34;17.83;;;9.87;;
4961;SDS011;2496;52.468;13.342;2024-02-26T11:08:03;14.40;;;9.63;;
4961;SDS011;2496;52.468;13.342;2024-02-26T11:10:31;17.30;;;10.03;;
4961;SDS011;2496;52.468;13.342;2024-02-26T11:12:59;14.47;;;9.20;;
4961;SDS011;2496;52.468;13.342;2024-02-26T11:15:28;15.30;;;9.47;;
4961;SDS011;2496;52.468;13.342;2024-02-26T11:17:57;15.97;;;9.03;;
4961;SDS011;2496;52.468;13.342;2024-02-26T11:20:25;13.20;;;8.70;;
4961;SDS011;2496;52.468;13.342;2024-02-26T11:22:55;13.97;;;9.73;;
4961;SDS011;2496;52.468;13.342;2024-02-26T11:25:23;12.20;;;8.30;;
4961;SDS011;2496;52.468;13.342;2024-02-26T11:27:51;15.30;;;9.73;;
4961;SDS011;2496;52.468;13.342;2024-02-26T11:30:19;11.70;;;7.80;;
4961;SDS011;2496;52.468;13.342;2024-02-26T11:32:48;13.53;;;7.70;;
4961;SDS011;2496;52.468;13.342;2024-02-26T11:35:15;14.37;;;9.30;;
4961;SDS011;2496;52.468;13.342;2024-02-26T11:37:50;11.10;;;7.70;;
4961;SDS011;2496;52.468;13.342;2024-02-26T11:40:18;16.50;;;8.20;;
4961;SDS011;2496;52.468;13.342;2024-02-26T11:42:45;14.07;;;9.50;;
4961;SDS011;2496;52.468;13.342;2024-02-26T11:47:59;10.37;;;7.50;;
4961;SDS011;2496;52.468;13.342;2024-02-26T11:50:32;15.20;;;8.70;;
4961;SDS011;2496;52.468;13.342;2024-02-26T11:53:19;11.10;;;7.70;;
4961;SDS011;2496;52.468;13.342;2024-02-26T11:55:47;11.50;;;7.93;;
4961;SDS011;2496;52.468;13.342;2024-02-26T11:58:14;12.27;;;7.97;;
4961;SDS011;2496;52.468;13.342;2024-02-26T12:00:42;11.03;;;7.50;;
4961;SDS011;2496;52.468;13.342;2024-02-26T12:03:10;12.33;;;6.60;;
4961;SDS011;2496;52.468;13.342;2024-02-26T12:05:38;11.40;;;7.47;;
4961;SDS011;2496;52.468;13.342;2024-02-26T12:08:06;13.60;;;8.23;;
4961;SDS011;2496;52.468;13.342;2024-02-26T12:10:34;14.00;;;9.00;;
4961;SDS011;2496;52.468;13.342;2024-02-26T12:13:05;12.83;;;7.27;;
4961;SDS011;2496;52.468;13.342;2024-02-26T12:15:32;12.50;;;8.33;;
4961;SDS011;2496;52.468;13.342;2024-02-26T12:18:00;12.77;;;9.50;;
4961;SDS011;2496;52.468;13.342;2024-02-26T12:20:29;10.87;;;7.50;;
4961;SDS011;2496;52.468;13.342;2024-02-26T12:22:57;14.27;;;8.77;;
4961;SDS011;2496;52.468;13.342;2024-02-26T12:25:24;13.50;;;8.50;;
4961;SDS011;2496;52.468;13.342;2024-02-26T12:27:52;14.20;;;8.40;;
4961;SDS011;2496;52.468;13.342;2024-02-26T12:30:19;16.00;;;9.20;;
4961;SDS011;2496;52.468;13.342;2024-02-26T12:32:47;13.00;;;9.90;;
4961;SDS011;2496;52.468;13.342;2024-02-26T12:35:15;14.80;;;9.10;;
4961;SDS011;2496;52.468;13.342;2024-02-26T12:37:44;12.90;;;9.27;;
4961;SDS011;2496;52.468;13.342;2024-02-26T12:40:11;15.00;;;10.13;;
4961;SDS011;2496;52.468;13.342;2024-02-26T12:42:39;16.50;;;10.07;;
4961;SDS011;2496;52.468;13.342;2024-02-26T12:45:07;9.73;;;8.63;;
4961;SDS011;2496;52.468;13.342;2024-02-26T12:47:35;11.10;;;8.43;;
4961;SDS011;2496;52.468;13.342;2024-02-26T12:50:03;12.73;;;8.70;;
4961;SDS011;2496;52.468;13.342;2024-02-26T12:52:30;14.23;;;9.17;;
4961;SDS011;2496;52.468;13.342;2024-02-26T12:54:59;17.20;;;9.40;;
4961;SDS011;2496;52.468;13.342;2024-02-26T12:57:27;15.07;;;10.90;;
4961;SDS011;2496;52.468;13.342;2024-02-26T12:59:55;17.23;;;10.77;;
4961;SDS011;2496;52.468;13.342;2024-02-26T13:02:22;12.83;;;10.23;;
4961;SDS011;2496;52.468;13.342;2024-02-26T13:04:50;14.60;;;9.50;;
4961;SDS011;2496;52.468;13.342;2024-02-26T13:07:17;15.67;;;9.63;;
4961;SDS011;2496;52.468;13.342;2024-02-26T13:09:44;15.97;;;7.53;;
4961;SDS011;2496;52.468;13.342;2024-02-26T13:12:13;13.57;;;7.63;;
4961;SDS011;2496;52.468;13.342;2024-02-26T13:14:40;10.83;;;6.93;;
4961;SDS011;2496;52.468;13.342;2024-02-26T13:17:07;13.40;;;7.60;;
4961;SDS011;2496;52.468;13.342;2024-02-26T13:19:35;14.50;;;8.10;;
4961;SDS011;2496;52.468;13.342;2024-02-26T13:22:05;10.53;;;8.03;;
4961;SDS011;2496;52.468;13.342;2024-02-26T13:24:32;15.03;;;8.17;;
4961;SDS011;2496;52.468;13.342;2024-02-26T13:27:00;11.33;;;7.13;;
4961;SDS011;2496;52.468;13.342;2024-02-26T13:29:29;18.60;;;8.93;;
4961;SDS011;2496;52.468;13.342;2024-02-26T13:31:57;11.30;;;7.10;;
4961;SDS011;2496;52.468;13.342;2024-02-26T13:34:24;9.10;;;6.13;;
4961;SDS011;2496;52.468;13.342;2024-02-26T13:36:51;10.77;;;6.20;;
4961;SDS011;2496;52.468;13.342;2024-02-26T13:39:21;9.97;;;5.33;;
4961;SDS011;2496;52.468;13.342;2024-02-26T13:41:49;7.60;;;5.87;;
4961;SDS011;2496;52.468;13.342;2024-02-26T13:44:16;11.00;;;5.37;;
4961;SDS011;2496;52.468;13.342;2024-02-26T13:46:45;10.17;;;5.90;;
4961;SDS011;2496;52.468;13.342;2024-02-26T13:49:12;8.27;;;6.10;;
4961;SDS011;2496;52.468;13.342;2024-02-26T13:51:40;9.63;;;5.67;;
4961;SDS011;2496;52.468;13.342;2024-02-26T13:54:07;8.70;;;4.93;;
4961;SDS011;2496;52.468;13.342;2024-02-26T13:56:35;7.57;;;4.40;;
4961;SDS011;2496;52.468;13.342;2024-02-26T13:59:03;9.23;;;4.80;;
4961;SDS011;2496;52.468;13.342;2024-02-26T14:01:30;7.43;;;4.50;;
4961;SDS011;2496;52.468;13.342;2024-02-26T14:04:00;9.63;;;4.80;;
4961;SDS011;2496;52.468;13.342;2024-02-26T14:06:29;11.30;;;6.40;;
4961;SDS011;2496;52.468;13.342;2024-02-26T14:08:57;8.50;;;5.83;;
4961;SDS011;2496;52.468;13.342;2024-02-26T14:11:24;6.90;;;5.17;;
4961;SDS011;2496;52.468;13.342;2024-02-26T14:13:54;8.60;;;4.90;;
4961;SDS011;2496;52.468;13.342;2024-02-26T14:16:21;8.43;;;5.87;;
4961;SDS011;2496;52.468;13.342;2024-02-26T14:18:48;8.73;;;5.70;;
4961;SDS011;2496;52.468;13.342;2024-02-26T14:21:24;14.67;;;8.67;;
4961;SDS011;2496;52.468;13.342;2024-02-26T14:23:53;9.90;;;6.20;;
4961;SDS011;2496;52.468;13.342;2024-02-26T14:26:20;8.97;;;6.30;;
4961;SDS011;2496;52.468;13.342;2024-02-26T14:28:48;11.43;;;6.90;;
4961;SDS011;2496;52.468;13.342;2024-02-26T14:31:24;9.70;;;6.50;;
4961;SDS011;2496;52.468;13.342;2024-02-26T14:33:53;11.13;;;7.03;;
4961;SDS011;2496;52.468;13.342;2024-02-26T14:36:23;11.47;;;5.90;;
4961;SDS011;2496;52.468;13.342;2024-02-26T14:38:51;10.67;;;5.90;;
4961;SDS011;2496;52.468;13.342;2024-02-26T14:41:18;9.30;;;6.40;;
4961;SDS011;2496;52.468;13.342;2024-02-26T14:43:45;8.70;;;6.07;;
4961;SDS011;2496;52.468;13.342;2024-02-26T14:46:12;11.50;;;6.40;;
4961;SDS011;2496;52.468;13.342;2024-02-26T14:48:40;8.50;;;6.40;;
4961;SDS011;2496;52.468;13.342;2024-02-26T14:51:07;8.57;;;6.40;;